sensor_id;sensor_type;location;lat;lon;timestamp;pressure;altitude;pressure_sealevel;temperature;humidity
42633;BME280;28261;53.304;-6.284;2023-04-24T00:01:38;100359.75;;;8.76;100.00
42633;BME280;28261;53.304;-6.284;2023-04-24T00:03:43;100354.59;;;8.74;100.00
42633;BME280;28261;53.304;-6.284;2023-04-24T00:05:47;100350.16;;;8.75;100.00
42633;BME280;28261;53.304;-6.284;2023-04-24T00:07:52;100352.81;;;8.75;100.00
42633;BME280;28261;53.304;-6.284;2023-04-24T00:09:57;100357.22;;;8.74;99.45
42633;BME280;28261;53.304;-6.284;2023-04-24T00:12:01;100352.03;;;8.73;99.45
42633;BME280;28261;53.304;-6.284;2023-04-24T00:14:06;100350.22;;;8.73;99.81
42633;BME280;28261;53.304;-6.284;2023-04-24T00:16:12;100357.44;;;8.71;99.10
42633;BME280;28261;53.304;-6.284;2023-04-24T00:18:17;100357.53;;;8.70;99.38
42633;BME280;28261;53.304;-6.284;2023-04-24T00:20:21;100350.56;;;8.69;99.63
42633;BME280;28261;53.304;-6.284;2023-04-24T00:22:28;100348.75;;;8.69;99.42
42633;BME280;28261;53.304;-6.284;2023-04-24T00:24:33;100346.19;;;8.68;99.35
42633;BME280;28261;53.304;-6.284;2023-04-24T00:26:37;100343.78;;;8.64;98.88
42633;BME280;28261;53.304;-6.284;2023-04-24T00:28:41;100348.22;;;8.64;99.33
42633;BME280;28261;53.304;-6.284;2023-04-24T00:30:45;100342.94;;;8.64;98.70
42633;BME280;28261;53.304;-6.284;2023-04-24T00:32:51;100343.03;;;8.62;99.09
42633;BME280;28261;53.304;-6.284;2023-04-24T00:34:56;100353.69;;;8.61;98.32
42633;BME280;28261;53.304;-6.284;2023-04-24T00:37:01;100345.03;;;8.59;99.08
42633;BME280;28261;53.304;-6.284;2023-04-24T00:39:05;100345.97;;;8.58;98.36
42633;BME280;28261;53.304;-6.284;2023-04-24T00:41:10;100347.88;;;8.56;98.76
42633;BME280;28261;53.304;-6.284;2023-04-24T00:43:15;100344.47;;;8.54;98.75
42633;BME280;28261;53.304;-6.284;2023-04-24T00:45:19;100347.22;;;8.52;98.76
42633;BME280;28261;53.304;-6.284;2023-04-24T00:47:24;100344.66;;;8.51;98.68
42633;BME280;28261;53.304;-6.284;2023-04-24T00:49:30;100349.09;;;8.50;98.93
42633;BME280;28261;53.304;-6.284;2023-04-24T00:51:34;100343.91;;;8.49;98.43
42633;BME280;28261;53.304;-6.284;2023-04-24T00:53:39;100344.00;;;8.47;99.04
42633;BME280;28261;53.304;-6.284;2023-04-24T00:55:43;100337.09;;;8.44;99.64
42633;BME280;28261;53.304;-6.284;2023-04-24T00:57:48;100338.84;;;8.45;98.92
42633;BME280;28261;53.304;-6.284;2023-04-24T00:59:54;100340.72;;;8.43;99.32
42633;BME280;28261;53.304;-6.284;2023-04-24T01:01:58;100343.53;;;8.40;98.96
42633;BME280;28261;53.304;-6.284;2023-04-24T01:04:05;100342.78;;;8.38;99.33
42633;BME280;28261;53.304;-6.284;2023-04-24T01:06:14;100343.00;;;8.35;99.23
42633;BME280;28261;53.304;-6.284;2023-04-24T01:08:19;100343.16;;;8.32;99.97
42633;BME280;28261;53.304;-6.284;2023-04-24T01:10:25;100346.94;;;8.28;99.75
42633;BME280;28261;53.304;-6.284;2023-04-24T01:12:30;100346.22;;;8.26;99.74
42633;BME280;28261;53.304;-6.284;2023-04-24T01:14:34;100346.38;;;8.23;100.00
42633;BME280;28261;53.304;-6.284;2023-04-24T01:16:39;100349.03;;;8.23;99.60
42633;BME280;28261;53.304;-6.284;2023-04-24T01:18:46;100345.66;;;8.21;99.29
42633;BME280;28261;53.304;-6.284;2023-04-24T01:20:58;100347.53;;;8.19;100.00
42633;BME280;28261;53.304;-6.284;2023-04-24T01:23:07;100346.69;;;8.18;99.99
42633;BME280;28261;53.304;-6.284;2023-04-24T01:25:12;100356.50;;;8.16;100.00
42633;BME280;28261;53.304;-6.284;2023-04-24T01:27:16;100365.47;;;8.13;100.00
42633;BME280;28261;53.304;-6.284;2023-04-24T01:29:22;100371.50;;;8.16;100.00
42633;BME280;28261;53.304;-6.284;2023-04-24T01:31:25;100369.78;;;8.14;99.94
42633;BME280;28261;53.304;-6.284;2023-04-24T01:33:30;100373.28;;;8.15;99.65
42633;BME280;28261;53.304;-6.284;2023-04-24T01:35:33;100370.66;;;8.15;100.00
42633;BME280;28261;53.304;-6.284;2023-04-24T01:37:38;100365.47;;;8.13;100.00
42633;BME280;28261;53.304;-6.284;2023-04-24T01:39:43;100374.22;;;8.14;100.00
42633;BME280;28261;53.304;-6.284;2023-04-24T01:41:46;100369.03;;;8.12;99.90
42633;BME280;28261;53.304;-6.284;2023-04-24T01:43:53;100370.91;;;8.10;100.00
42633;BME280;28261;53.304;-6.284;2023-04-24T01:45:57;100373.75;;;8.07;100.00
42633;BME280;28261;53.304;-6.284;2023-04-24T01:48:01;100372.16;;;8.05;100.00
42633;BME280;28261;53.304;-6.284;2023-04-24T01:50:05;100366.25;;;8.01;100.00
42633;BME280;28261;53.304;-6.284;2023-04-24T01:52:09;100368.09;;;7.99;100.00
42633;BME280;28261;53.304;-6.284;2023-04-24T01:54:13;100361.13;;;7.98;100.00
42633;BME280;28261;53.304;-6.284;2023-04-24T01:56:18;100370.66;;;8.01;100.00
42633;BME280;28261;53.304;-6.284;2023-04-24T01:58:22;100368.00;;;8.01;100.00
42633;BME280;28261;53.304;-6.284;2023-04-24T02:00:26;100377.63;;;8.02;100.00
42633;BME280;28261;53.304;-6.284;2023-04-24T02:02:30;100371.53;;;8.01;100.00
42633;BME280;28261;53.304;-6.284;2023-04-24T02:04:34;100372.34;;;8.02;100.00
42633;BME280;28261;53.304;-6.284;2023-04-24T02:06:37;100372.34;;;8.02;100.00
42633;BME280;28261;53.304;-6.284;2023-04-24T02:08:41;100378.47;;;8.02;100.00
42633;BME280;28261;53.304;-6.284;2023-04-24T02:10:44;100378.47;;;8.02;100.00
42633;BME280;28261;53.304;-6.284;2023-04-24T02:12:49;100378.47;;;8.02;100.00
42633;BME280;28261;53.304;-6.284;2023-04-24T02:14:52;100376.59;;;8.04;100.00
42633;BME280;28261;53.304;-6.284;2023-04-24T02:16:56;100384.41;;;8.06;100.00
42633;BME280;28261;53.304;-6.284;2023-04-24T02:18:59;100381.69;;;8.07;100.00
42633;BME280;28261;53.304;-6.284;2023-04-24T02:21:03;100379.03;;;8.07;100.00
42633;BME280;28261;53.304;-6.284;2023-04-24T02:23:06;100381.69;;;8.07;100.00
42633;BME280;28261;53.304;-6.284;2023-04-24T02:25:09;100378.09;;;8.08;100.00
42633;BME280;28261;53.304;-6.284;2023-04-24T02:27:13;100376.19;;;8.10;100.00
42633;BME280;28261;53.304;-6.284;2023-04-24T02:29:18;100379.50;;;8.14;100.00
42633;BME280;28261;53.304;-6.284;2023-04-24T02:31:24;100385.47;;;8.18;100.00
42633;BME280;28261;53.304;-6.284;2023-04-24T02:33:27;100385.34;;;8.19;100.00
42633;BME280;28261;53.304;-6.284;2023-04-24T02:35:31;100386.19;;;8.20;100.00
42633;BME280;28261;53.304;-6.284;2023-04-24T02:37:34;100381.84;;;8.19;100.00
42633;BME280;28261;53.304;-6.284;2023-04-24T02:39:38;100390.53;;;8.21;100.00
42633;BME280;28261;53.304;-6.284;2023-04-24T02:41:42;100393.19;;;8.21;100.00
42633;BME280;28261;53.304;-6.284;2023-04-24T02:43:45;100393.19;;;8.21;100.00
42633;BME280;28261;53.304;-6.284;2023-04-24T02:45:50;100394.00;;;8.21;100.00
42633;BME280;28261;53.304;-6.284;2023-04-24T02:47:54;100393.19;;;8.21;100.00
42633;BME280;28261;53.304;-6.284;2023-04-24T02:49:58;100388.63;;;8.23;100.00
42633;BME280;28261;53.304;-6.284;2023-04-24T02:52:02;100388.56;;;8.24;100.00
42633;BME280;28261;53.304;-6.284;2023-04-24T02:54:05;100388.47;;;8.26;100.00
42633;BME280;28261;53.304;-6.284;2023-04-24T02:56:09;100384.13;;;8.25;100.00
42633;BME280;28261;53.304;-6.284;2023-04-24T02:58:14;100386.75;;;8.25;100.00
42633;BME280;28261;53.304;-6.284;2023-04-24T03:00:18;100387.59;;;8.25;100.00
42633;BME280;28261;53.304;-6.284;2023-04-24T03:02:22;100391.09;;;8.26;100.00
42633;BME280;28261;53.304;-6.284;2023-04-24T03:04:26;100398.09;;;8.27;100.00
42633;BME280;28261;53.304;-6.284;2023-04-24T03:06:30;100393.75;;;8.26;100.00
42633;BME280;28261;53.304;-6.284;2023-04-24T03:08:35;100391.28;;;8.23;100.00
42633;BME280;28261;53.304;-6.284;2023-04-24T03:10:38;100398.25;;;8.24;100.00
42633;BME280;28261;53.304;-6.284;2023-04-24T03:12:42;100396.38;;;8.26;100.00
42633;BME280;28261;53.304;-6.284;2023-04-24T03:14:46;100399.97;;;8.25;100.00
42633;BME280;28261;53.304;-6.284;2023-04-24T03:16:49;100396.56;;;8.23;100.00
42633;BME280;28261;53.304;-6.284;2023-04-24T03:18:54;100400.81;;;8.25;100.00
42633;BME280;28261;53.304;-6.284;2023-04-24T03:21:00;100397.13;;;8.28;100.00
42633;BME280;28261;53.304;-6.284;2023-04-24T03:23:05;100398.81;;;8.29;100.00
42633;BME280;28261;53.304;-6.284;2023-04-24T03:25:10;100396.19;;;8.29;100.00
42633;BME280;28261;53.304;-6.284;2023-04-24T03:27:14;100390.91;;;8.29;100.00
42633;BME280;28261;53.304;-6.284;2023-04-24T03:29:38;100394.31;;;8.31;100.00
42633;BME280;28261;53.304;-6.284;2023-04-24T03:31:42;100392.41;;;8.33;100.00
42633;BME280;28261;53.304;-6.284;2023-04-24T03:33:45;100394.94;;;8.35;100.00
42633;BME280;28261;53.304;-6.284;2023-04-24T03:35:50;100399.19;;;8.37;100.00
42633;BME280;28261;53.304;-6.284;2023-04-24T03:37:54;100394.00;;;8.36;100.00
42633;BME280;28261;53.304;-6.284;2023-04-24T03:40:24;100391.47;;;8.34;100.00
42633;BME280;28261;53.304;-6.284;2023-04-24T03:42:27;100399.41;;;8.34;100.00
42633;BME280;28261;53.304;-6.284;2023-04-24T03:44:30;100389.88;;;8.32;100.00
42633;BME280;28261;53.304;-6.284;2023-04-24T03:46:34;100396.94;;;8.31;100.00
42633;BME280;28261;53.304;-6.284;2023-04-24T03:48:38;100391.66;;;8.31;100.00
42633;BME280;28261;53.304;-6.284;2023-04-24T03:50:43;100393.34;;;8.32;100.00
42633;BME280;28261;53.304;-6.284;2023-04-24T03:52:49;100389.03;;;8.31;100.00
42633;BME280;28261;53.304;-6.284;2023-04-24T03:55:07;100389.19;;;8.28;100.00
42633;BME280;28261;53.304;-6.284;2023-04-24T03:57:17;100389.41;;;8.25;100.00
42633;BME280;28261;53.304;-6.284;2023-04-24T03:59:32;100389.69;;;8.20;100.00
42633;BME280;28261;53.304;-6.284;2023-04-24T04:01:45;100395.06;;;8.19;100.00
42633;BME280;28261;53.304;-6.284;2023-04-24T04:03:50;100388.09;;;8.18;100.00
42633;BME280;28261;53.304;-6.284;2023-04-24T04:05:58;100388.94;;;8.18;100.00
42633;BME280;28261;53.304;-6.284;2023-04-24T04:08:03;100395.81;;;8.21;100.00
42633;BME280;28261;53.304;-6.284;2023-04-24T04:10:08;100393.38;;;8.18;100.00
42633;BME280;28261;53.304;-6.284;2023-04-24T04:12:12;100391.88;;;8.13;100.00
42633;BME280;28261;53.304;-6.284;2023-04-24T04:14:15;100389.50;;;8.09;100.00
42633;BME280;28261;53.304;-6.284;2023-04-24T04:16:22;100393.38;;;8.03;100.00
42633;BME280;28261;53.304;-6.284;2023-04-24T04:18:32;100398.56;;;7.90;100.00
42633;BME280;28261;53.304;-6.284;2023-04-24T04:20:38;100394.88;;;7.78;100.00
42633;BME280;28261;53.304;-6.284;2023-04-24T04:22:42;100394.19;;;7.75;100.00
42633;BME280;28261;53.304;-6.284;2023-04-24T04:24:53;100399.78;;;7.70;100.00
42633;BME280;28261;53.304;-6.284;2023-04-24T04:26:58;100400.72;;;7.69;100.00
42633;BME280;28261;53.304;-6.284;2023-04-24T04:29:06;100398.25;;;7.66;100.00
42633;BME280;28261;53.304;-6.284;2023-04-24T04:31:14;100400.59;;;7.71;100.00
42633;BME280;28261;53.304;-6.284;2023-04-24T04:33:18;100404.03;;;7.73;100.00
42633;BME280;28261;53.304;-6.284;2023-04-24T04:35:23;100399.88;;;7.69;100.00
42633;BME280;28261;53.304;-6.284;2023-04-24T04:37:27;100400.06;;;7.66;100.00
42633;BME280;28261;53.304;-6.284;2023-04-24T04:39:47;100403.19;;;7.72;100.00
42633;BME280;28261;53.304;-6.284;2023-04-24T04:41:56;100402.06;;;7.76;100.00
42633;BME280;28261;53.304;-6.284;2023-04-24T04:44:05;100404.59;;;7.78;100.00
42633;BME280;28261;53.304;-6.284;2023-04-24T04:46:11;100407.88;;;7.82;100.00
42633;BME280;28261;53.304;-6.284;2023-04-24T04:48:26;100424.28;;;7.87;100.00
42633;BME280;28261;53.304;-6.284;2023-04-24T04:50:33;100421.41;;;7.91;100.00
42633;BME280;28261;53.304;-6.284;2023-04-24T04:52:41;100424.56;;;7.96;100.00
42633;BME280;28261;53.304;-6.284;2023-04-24T04:54:59;100432.41;;;7.98;100.00
42633;BME280;28261;53.304;-6.284;2023-04-24T04:57:25;100436.44;;;7.89;100.00
42633;BME280;28261;53.304;-6.284;2023-04-24T04:59:30;100454.06;;;7.74;100.00
42633;BME280;28261;53.304;-6.284;2023-04-24T05:01:40;100458.44;;;7.59;100.00
42633;BME280;28261;53.304;-6.284;2023-04-24T05:03:46;100450.56;;;7.43;100.00
42633;BME280;28261;53.304;-6.284;2023-04-24T05:05:52;100458.63;;;7.26;100.00
42633;BME280;28261;53.304;-6.284;2023-04-24T05:07:56;100464.84;;;7.09;100.00
42633;BME280;28261;53.304;-6.284;2023-04-24T05:10:00;100469.56;;;6.88;100.00
42633;BME280;28261;53.304;-6.284;2023-04-24T05:12:04;100475.19;;;6.66;100.00
42633;BME280;28261;53.304;-6.284;2023-04-24T05:14:15;100481.50;;;6.46;100.00
42633;BME280;28261;53.304;-6.284;2023-04-24T05:16:20;100487.91;;;6.24;100.00
42633;BME280;28261;53.304;-6.284;2023-04-24T05:18:27;100480.84;;;6.08;100.00
42633;BME280;28261;53.304;-6.284;2023-04-24T05:20:32;100485.16;;;5.92;100.00
42633;BME280;28261;53.304;-6.284;2023-04-24T05:22:36;100494.59;;;5.79;100.00
42633;BME280;28261;53.304;-6.284;2023-04-24T05:24:40;100491.13;;;5.61;100.00
42633;BME280;28261;53.304;-6.284;2023-04-24T05:27:08;100486.41;;;5.50;100.00
42633;BME280;28261;53.304;-6.284;2023-04-24T05:29:17;100487.41;;;5.47;100.00
42633;BME280;28261;53.304;-6.284;2023-04-24T05:31:22;100493.03;;;5.39;100.00
42633;BME280;28261;53.304;-6.284;2023-04-24T05:33:27;100497.38;;;5.40;100.00
42633;BME280;28261;53.304;-6.284;2023-04-24T05:35:31;100494.19;;;5.34;100.00
42633;BME280;28261;53.304;-6.284;2023-04-24T05:37:36;100507.41;;;5.32;100.00
42633;BME280;28261;53.304;-6.284;2023-04-24T05:39:42;100506.63;;;5.30;100.00
42633;BME280;28261;53.304;-6.284;2023-04-24T05:41:46;100507.69;;;5.26;100.00
42633;BME280;28261;53.304;-6.284;2023-04-24T05:43:51;100512.09;;;5.25;100.00
42633;BME280;28261;53.304;-6.284;2023-04-24T05:45:56;100516.97;;;5.16;100.00
42633;BME280;28261;53.304;-6.284;2023-04-24T05:48:01;100525.19;;;5.08;100.00
42633;BME280;28261;53.304;-6.284;2023-04-24T05:50:08;100521.31;;;4.98;100.00
42633;BME280;28261;53.304;-6.284;2023-04-24T05:52:16;100527.66;;;4.94;100.00
42633;BME280;28261;53.304;-6.284;2023-04-24T05:54:22;100535.78;;;4.87;100.00
42633;BME280;28261;53.304;-6.284;2023-04-24T05:56:27;100541.13;;;4.86;100.00
42633;BME280;28261;53.304;-6.284;2023-04-24T05:58:32;100546.53;;;4.83;100.00
42633;BME280;28261;53.304;-6.284;2023-04-24T06:00:37;100545.81;;;4.79;100.00
42633;BME280;28261;53.304;-6.284;2023-04-24T06:02:44;100552.91;;;4.77;100.00
42633;BME280;28261;53.304;-6.284;2023-04-24T06:04:49;100553.81;;;4.76;100.00
42633;BME280;28261;53.304;-6.284;2023-04-24T06:06:55;100561.13;;;4.69;100.00
42633;BME280;28261;53.304;-6.284;2023-04-24T06:09:00;100566.53;;;4.66;100.00
42633;BME280;28261;53.304;-6.284;2023-04-24T06:11:05;100566.63;;;4.63;100.00
42633;BME280;28261;53.304;-6.284;2023-04-24T06:13:13;100567.63;;;4.61;100.00
42633;BME280;28261;53.304;-6.284;2023-04-24T06:15:31;100574.00;;;4.55;100.00
42633;BME280;28261;53.304;-6.284;2023-04-24T06:17:47;100572.31;;;4.54;100.00
42633;BME280;28261;53.304;-6.284;2023-04-24T06:19:52;100568.75;;;4.55;100.00
42633;BME280;28261;53.304;-6.284;2023-04-24T06:22:00;100579.41;;;4.52;100.00
42633;BME280;28261;53.304;-6.284;2023-04-24T06:24:04;100587.56;;;4.46;100.00
42633;BME280;28261;53.304;-6.284;2023-04-24T06:26:09;100595.28;;;4.49;100.00
42633;BME280;28261;53.304;-6.284;2023-04-24T06:28:14;100605.81;;;4.49;100.00
42633;BME280;28261;53.304;-6.284;2023-04-24T06:30:18;100599.56;;;4.51;100.00
42633;BME280;28261;53.304;-6.284;2023-04-24T06:32:23;100612.75;;;4.50;100.00
42633;BME280;28261;53.304;-6.284;2023-04-24T06:34:29;100613.81;;;4.46;100.00
42633;BME280;28261;53.304;-6.284;2023-04-24T06:36:35;100611.22;;;4.44;100.00
42633;BME280;28261;53.304;-6.284;2023-04-24T06:38:40;100618.34;;;4.42;100.00
42633;BME280;28261;53.304;-6.284;2023-04-24T06:40:45;100620.88;;;4.44;100.00
42633;BME280;28261;53.304;-6.284;2023-04-24T06:42:50;100620.75;;;4.47;100.00
42633;BME280;28261;53.304;-6.284;2023-04-24T06:44:55;100621.63;;;4.47;100.00
42633;BME280;28261;53.304;-6.284;2023-04-24T06:46:59;100627.03;;;4.43;100.00
42633;BME280;28261;53.304;-6.284;2023-04-24T06:49:04;100619.25;;;4.41;100.00
42633;BME280;28261;53.304;-6.284;2023-04-24T06:51:10;100631.69;;;4.36;100.00
42633;BME280;28261;53.304;-6.284;2023-04-24T06:53:15;100634.41;;;4.34;100.00
42633;BME280;28261;53.304;-6.284;2023-04-24T06:55:19;100637.81;;;4.36;100.00
42633;BME280;28261;53.304;-6.284;2023-04-24T06:57:23;100642.94;;;4.39;100.00
42633;BME280;28261;53.304;-6.284;2023-04-24T06:59:28;100644.66;;;4.40;100.00
42633;BME280;28261;53.304;-6.284;2023-04-24T07:01:33;100650.94;;;4.36;100.00
42633;BME280;28261;53.304;-6.284;2023-04-24T07:03:38;100654.75;;;4.29;100.00
42633;BME280;28261;53.304;-6.284;2023-04-24T07:05:42;100660.84;;;4.30;100.00
42633;BME280;28261;53.304;-6.284;2023-04-24T07:07:50;100654.88;;;4.26;100.00
42633;BME280;28261;53.304;-6.284;2023-04-24T07:09:55;100660.03;;;4.28;100.00
42633;BME280;28261;53.304;-6.284;2023-04-24T07:12:00;100669.69;;;4.27;100.00
42633;BME280;28261;53.304;-6.284;2023-04-24T07:14:04;100667.22;;;4.24;100.00
42633;BME280;28261;53.304;-6.284;2023-04-24T07:16:08;100670.88;;;4.20;100.00
42633;BME280;28261;53.304;-6.284;2023-04-24T07:18:13;100674.63;;;4.14;100.00
42633;BME280;28261;53.304;-6.284;2023-04-24T07:20:18;100679.00;;;4.14;100.00
42633;BME280;28261;53.304;-6.284;2023-04-24T07:22:22;100679.91;;;4.13;100.00
42633;BME280;28261;53.304;-6.284;2023-04-24T07:24:27;100678.16;;;4.13;100.00
42633;BME280;28261;53.304;-6.284;2023-04-24T07:26:32;100677.94;;;4.18;100.00
42633;BME280;28261;53.304;-6.284;2023-04-24T07:28:36;100684.84;;;4.20;100.00
42633;BME280;28261;53.304;-6.284;2023-04-24T07:30:41;100681.25;;;4.23;100.00
42633;BME280;28261;53.304;-6.284;2023-04-24T07:32:46;100689.84;;;4.27;100.00
42633;BME280;28261;53.304;-6.284;2023-04-24T07:34:51;100680.13;;;4.29;100.00
42633;BME280;28261;53.304;-6.284;2023-04-24T07:36:55;100681.78;;;4.31;100.00
42633;BME280;28261;53.304;-6.284;2023-04-24T07:39:00;100680.88;;;4.32;100.00
42633;BME280;28261;53.304;-6.284;2023-04-24T07:41:06;100682.56;;;4.33;100.00
42633;BME280;28261;53.304;-6.284;2023-04-24T07:43:10;100694.69;;;4.36;100.00
42633;BME280;28261;53.304;-6.284;2023-04-24T07:45:15;100696.41;;;4.37;100.00
42633;BME280;28261;53.304;-6.284;2023-04-24T07:47:19;100692.03;;;4.37;100.00
42633;BME280;28261;53.304;-6.284;2023-04-24T07:49:24;100692.94;;;4.36;100.00
42633;BME280;28261;53.304;-6.284;2023-04-24T07:51:30;100703.22;;;4.41;100.00
42633;BME280;28261;53.304;-6.284;2023-04-24T07:53:36;100702.25;;;4.44;100.00
42633;BME280;28261;53.304;-6.284;2023-04-24T07:55:41;100698.72;;;4.45;100.00
42633;BME280;28261;53.304;-6.284;2023-04-24T07:57:47;100707.25;;;4.50;100.00
42633;BME280;28261;53.304;-6.284;2023-04-24T07:59:52;100712.31;;;4.54;100.00
42633;BME280;28261;53.304;-6.284;2023-04-24T08:01:56;100718.16;;;4.61;100.00
42633;BME280;28261;53.304;-6.284;2023-04-24T08:04:00;100725.13;;;4.62;100.00
42633;BME280;28261;53.304;-6.284;2023-04-24T08:06:06;100726.81;;;4.63;100.00
42633;BME280;28261;53.304;-6.284;2023-04-24T08:08:11;100717.25;;;4.62;100.00
42633;BME280;28261;53.304;-6.284;2023-04-24T08:10:16;100723.19;;;4.66;100.00
42633;BME280;28261;53.304;-6.284;2023-04-24T08:12:21;100722.34;;;4.65;100.00
42633;BME280;28261;53.304;-6.284;2023-04-24T08:14:27;100724.19;;;4.63;100.00
42633;BME280;28261;53.304;-6.284;2023-04-24T08:16:33;100725.75;;;4.67;100.00
42633;BME280;28261;53.304;-6.284;2023-04-24T08:18:38;100726.63;;;4.68;100.00
42633;BME280;28261;53.304;-6.284;2023-04-24T08:20:43;100728.22;;;4.72;100.00
42633;BME280;28261;53.304;-6.284;2023-04-24T08:22:48;100725.66;;;4.70;100.00
42633;BME280;28261;53.304;-6.284;2023-04-24T08:24:52;100732.72;;;4.68;100.00
42633;BME280;28261;53.304;-6.284;2023-04-24T08:26:57;100734.38;;;4.71;100.00
42633;BME280;28261;53.304;-6.284;2023-04-24T08:29:02;100733.38;;;4.73;100.00
42633;BME280;28261;53.304;-6.284;2023-04-24T08:31:09;100738.44;;;4.78;100.00
42633;BME280;28261;53.304;-6.284;2023-04-24T08:33:13;100736.75;;;4.77;100.00
42633;BME280;28261;53.304;-6.284;2023-04-24T08:35:18;100737.59;;;4.78;100.00
42633;BME280;28261;53.304;-6.284;2023-04-24T08:37:23;100729.44;;;4.84;100.00
42633;BME280;28261;53.304;-6.284;2023-04-24T08:39:28;100733.84;;;4.83;100.00
42633;BME280;28261;53.304;-6.284;2023-04-24T08:41:34;100726.69;;;4.87;100.00
42633;BME280;28261;53.304;-6.284;2023-04-24T08:43:39;100739.09;;;5.04;100.00
42633;BME280;28261;53.304;-6.284;2023-04-24T08:45:45;100744.66;;;5.17;100.00
42633;BME280;28261;53.304;-6.284;2023-04-24T08:47:52;100738.44;;;5.38;100.00
42633;BME280;28261;53.304;-6.284;2023-04-24T08:49:57;100738.66;;;5.53;100.00
42633;BME280;28261;53.304;-6.284;2023-04-24T08:52:06;100742.06;;;5.55;100.00
42633;BME280;28261;53.304;-6.284;2023-04-24T08:54:11;100734.63;;;5.46;100.00
42633;BME280;28261;53.304;-6.284;2023-04-24T08:56:17;100748.25;;;5.35;100.00
42633;BME280;28261;53.304;-6.284;2023-04-24T08:58:22;100755.63;;;5.27;100.00
42633;BME280;28261;53.304;-6.284;2023-04-24T09:00:29;100751.28;;;5.25;100.00
42633;BME280;28261;53.304;-6.284;2023-04-24T09:02:34;100757.38;;;5.26;100.00
42633;BME280;28261;53.304;-6.284;2023-04-24T09:04:41;100757.97;;;5.33;100.00
42633;BME280;28261;53.304;-6.284;2023-04-24T09:06:48;100754.09;;;5.41;100.00
42633;BME280;28261;53.304;-6.284;2023-04-24T09:08:54;100759.94;;;5.48;100.00
42633;BME280;28261;53.304;-6.284;2023-04-24T09:10:59;100764.88;;;5.54;100.00
42633;BME280;28261;53.304;-6.284;2023-04-24T09:13:06;100764.06;;;5.54;100.00
42633;BME280;28261;53.304;-6.284;2023-04-24T09:15:12;100773.56;;;5.56;100.00
42633;BME280;28261;53.304;-6.284;2023-04-24T09:17:17;100779.69;;;5.57;100.00
42633;BME280;28261;53.304;-6.284;2023-04-24T09:19:21;100779.09;;;5.50;100.00
42633;BME280;28261;53.304;-6.284;2023-04-24T09:21:32;100782.94;;;5.43;100.00
42633;BME280;28261;53.304;-6.284;2023-04-24T09:23:37;100782.22;;;5.39;100.00
42633;BME280;28261;53.304;-6.284;2023-04-24T09:25:42;100786.22;;;5.48;100.00
42633;BME280;28261;53.304;-6.284;2023-04-24T09:27:47;100778.78;;;5.58;100.00
42633;BME280;28261;53.304;-6.284;2023-04-24T09:29:54;100783.63;;;5.67;100.00
42633;BME280;28261;53.304;-6.284;2023-04-24T09:31:59;100787.84;;;5.70;100.00
42633;BME280;28261;53.304;-6.284;2023-04-24T09:34:04;100790.47;;;5.70;100.00
42633;BME280;28261;53.304;-6.284;2023-04-24T09:36:10;100788.09;;;5.84;100.00
42633;BME280;28261;53.304;-6.284;2023-04-24T09:38:16;100789.94;;;6.01;100.00
42633;BME280;28261;53.304;-6.284;2023-04-24T09:40:22;100788.84;;;6.07;100.00
42633;BME280;28261;53.304;-6.284;2023-04-24T09:42:29;100790.03;;;6.00;100.00
42633;BME280;28261;53.304;-6.284;2023-04-24T09:44:34;100793.13;;;5.89;100.00
42633;BME280;28261;53.304;-6.284;2023-04-24T09:46:40;100798.69;;;5.83;100.00
42633;BME280;28261;53.304;-6.284;2023-04-24T09:48:45;100805.50;;;5.87;100.00
42633;BME280;28261;53.304;-6.284;2023-04-24T09:50:52;100802.88;;;5.87;100.00
42633;BME280;28261;53.304;-6.284;2023-04-24T09:52:58;100804.53;;;5.89;100.00
42633;BME280;28261;53.304;-6.284;2023-04-24T09:55:11;100811.69;;;5.86;100.00
42633;BME280;28261;53.304;-6.284;2023-04-24T09:57:15;100806.19;;;5.90;100.00
42633;BME280;28261;53.304;-6.284;2023-04-24T09:59:20;100806.16;;;5.92;100.00
42633;BME280;28261;53.304;-6.284;2023-04-24T10:01:30;100814.06;;;5.92;100.00
42633;BME280;28261;53.304;-6.284;2023-04-24T10:03:35;100806.16;;;5.92;100.00
42633;BME280;28261;53.304;-6.284;2023-04-24T10:05:40;100815.63;;;5.96;100.00
42633;BME280;28261;53.304;-6.284;2023-04-24T10:07:46;100828.88;;;5.93;100.00
42633;BME280;28261;53.304;-6.284;2023-04-24T10:09:52;100820.63;;;6.02;100.00
42633;BME280;28261;53.304;-6.284;2023-04-24T10:11:58;100840.75;;;6.03;100.00
42633;BME280;28261;53.304;-6.284;2023-04-24T10:14:05;100815.91;;;6.09;100.00
42633;BME280;28261;53.304;-6.284;2023-04-24T10:16:10;100822.09;;;6.08;100.00
42633;BME280;28261;53.304;-6.284;2023-04-24T10:18:15;100836.75;;;6.14;100.00
42633;BME280;28261;53.304;-6.284;2023-04-24T10:20:21;100819.75;;;6.21;100.00
42633;BME280;28261;53.304;-6.284;2023-04-24T10:22:27;100828.28;;;6.26;100.00
42633;BME280;28261;53.304;-6.284;2023-04-24T10:24:33;100821.09;;;6.30;100.00
42633;BME280;28261;53.304;-6.284;2023-04-24T10:26:41;100829.31;;;6.41;100.00
42633;BME280;28261;53.304;-6.284;2023-04-24T10:28:48;100829.75;;;6.51;100.00
42633;BME280;28261;53.304;-6.284;2023-04-24T10:30:54;100829.09;;;6.65;100.00
42633;BME280;28261;53.304;-6.284;2023-04-24T10:32:59;100828.63;;;6.91;100.00
42633;BME280;28261;53.304;-6.284;2023-04-24T10:35:06;100824.34;;;7.24;100.00
42633;BME280;28261;53.304;-6.284;2023-04-24T10:37:11;100828.53;;;7.45;100.00
42633;BME280;28261;53.304;-6.284;2023-04-24T10:39:17;100829.06;;;7.52;98.88
42633;BME280;28261;53.304;-6.284;2023-04-24T10:41:30;100837.38;;;7.44;95.33
42633;BME280;28261;53.304;-6.284;2023-04-24T10:43:35;100840.88;;;7.27;92.94
42633;BME280;28261;53.304;-6.284;2023-04-24T10:46:00;100854.00;;;7.11;94.80
42633;BME280;28261;53.304;-6.284;2023-04-24T10:48:07;100849.34;;;7.17;94.13
42633;BME280;28261;53.304;-6.284;2023-04-24T10:50:14;100850.34;;;7.14;92.54